sensor_id;sensor_type;location;lat;lon;timestamp;pressure;altitude;pressure_sealevel;temperature;humidity
34065;BME280;20339;49.754;20.158;2022-09-09T00:01:38;96337.27;;;16.50;99.99
34065;BME280;20339;49.754;20.158;2022-09-09T00:04:22;96339.80;;;16.53;100.00
34065;BME280;20339;49.754;20.158;2022-09-09T00:07:06;96344.59;;;16.52;100.00
34065;BME280;20339;49.754;20.158;2022-09-09T00:09:47;96337.90;;;16.51;100.00
34065;BME280;20339;49.754;20.158;2022-09-09T00:12:22;96340.02;;;16.50;100.00
34065;BME280;20339;49.754;20.158;2022-09-09T00:14:58;96337.12;;;16.54;100.00
34065;BME280;20339;49.754;20.158;2022-09-09T00:17:38;96342.69;;;16.62;100.00
34065;BME280;20339;49.754;20.158;2022-09-09T00:20:14;96340.19;;;16.68;100.00
34065;BME280;20339;49.754;20.158;2022-09-09T00:22:53;96334.20;;;16.74;100.00
34065;BME280;20339;49.754;20.158;2022-09-09T00:25:31;96337.77;;;16.80;100.00
34065;BME280;20339;49.754;20.158;2022-09-09T00:28:13;96339.40;;;16.81;99.84
34065;BME280;20339;49.754;20.158;2022-09-09T00:30:46;96347.89;;;16.79;99.65
34065;BME280;20339;49.754;20.158;2022-09-09T00:33:22;96347.11;;;16.77;99.76
34065;BME280;20339;49.754;20.158;2022-09-09T00:35:56;96346.45;;;16.70;99.30
34065;BME280;20339;49.754;20.158;2022-09-09T00:38:37;96346.83;;;16.64;99.12
34065;BME280;20339;49.754;20.158;2022-09-09T00:41:18;96345.31;;;16.58;99.22
34065;BME280;20339;49.754;20.158;2022-09-09T00:44:00;96345.59;;;16.52;99.28
34065;BME280;20339;49.754;20.158;2022-09-09T00:46:55;96352.90;;;16.47;99.40
34065;BME280;20339;49.754;20.158;2022-09-09T00:49:35;96352.65;;;16.43;99.60
34065;BME280;20339;49.754;20.158;2022-09-09T00:52:26;96353.17;;;16.41;99.63
34065;BME280;20339;49.754;20.158;2022-09-09T00:55:07;96353.57;;;16.37;99.82
34065;BME280;20339;49.754;20.158;2022-09-09T00:57:39;96352.39;;;16.34;99.85
34065;BME280;20339;49.754;20.158;2022-09-09T01:00:23;96351.16;;;16.33;100.00
34065;BME280;20339;49.754;20.158;2022-09-09T01:06:11;96359.42;;;16.27;100.00
34065;BME280;20339;49.754;20.158;2022-09-09T01:09:07;96359.61;;;16.22;100.00
34065;BME280;20339;49.754;20.158;2022-09-09T01:11:51;96365.48;;;16.16;100.00
34065;BME280;20339;49.754;20.158;2022-09-09T01:14:38;96367.63;;;16.13;100.00
34065;BME280;20339;49.754;20.158;2022-09-09T01:17:14;96372.83;;;16.11;100.00
34065;BME280;20339;49.754;20.158;2022-09-09T01:19:57;96372.90;;;16.09;100.00
34065;BME280;20339;49.754;20.158;2022-09-09T01:22:37;96375.23;;;16.08;100.00
34065;BME280;20339;49.754;20.158;2022-09-09T01:25:29;96374.98;;;16.08;100.00
34065;BME280;20339;49.754;20.158;2022-09-09T01:28:05;96373.95;;;16.07;100.00
34065;BME280;20339;49.754;20.158;2022-09-09T01:30:40;96375.33;;;16.05;100.00
34065;BME280;20339;49.754;20.158;2022-09-09T01:33:15;96375.05;;;16.06;100.00
34065;BME280;20339;49.754;20.158;2022-09-09T01:35:50;96381.33;;;16.08;100.00
34065;BME280;20339;49.754;20.158;2022-09-09T01:38:25;96383.27;;;16.12;100.00
34065;BME280;20339;49.754;20.158;2022-09-09T01:40:56;96384.60;;;16.19;100.00
34065;BME280;20339;49.754;20.158;2022-09-09T01:43:28;96391.05;;;16.21;100.00
34065;BME280;20339;49.754;20.158;2022-09-09T01:46:02;96391.48;;;16.24;100.00
34065;BME280;20339;49.754;20.158;2022-09-09T01:48:34;96388.64;;;16.24;100.00
34065;BME280;20339;49.754;20.158;2022-09-09T01:51:06;96392.86;;;16.24;100.00
34065;BME280;20339;49.754;20.158;2022-09-09T01:53:39;96394.46;;;16.24;100.00
34065;BME280;20339;49.754;20.158;2022-09-09T01:56:22;96399.74;;;16.26;100.00
34065;BME280;20339;49.754;20.158;2022-09-09T01:59:08;96400.14;;;16.27;100.00
34065;BME280;20339;49.754;20.158;2022-09-09T02:01:51;96403.14;;;16.27;100.00
34065;BME280;20339;49.754;20.158;2022-09-09T02:04:38;96406.45;;;16.24;100.00
34065;BME280;20339;49.754;20.158;2022-09-09T02:07:18;96404.13;;;16.25;100.00
34065;BME280;20339;49.754;20.158;2022-09-09T02:09:57;96404.67;;;16.28;100.00
34065;BME280;20339;49.754;20.158;2022-09-09T02:12:30;96410.75;;;16.28;100.00
34065;BME280;20339;49.754;20.158;2022-09-09T02:15:05;96409.10;;;16.31;100.00
34065;BME280;20339;49.754;20.158;2022-09-09T02:17:39;96411.44;;;16.35;100.00
34065;BME280;20339;49.754;20.158;2022-09-09T02:20:15;96413.83;;;16.40;99.97
34065;BME280;20339;49.754;20.158;2022-09-09T02:22:48;96416.83;;;16.37;99.95
34065;BME280;20339;49.754;20.158;2022-09-09T02:25:22;96419.90;;;16.30;99.89
34065;BME280;20339;49.754;20.158;2022-09-09T02:27:58;96419.59;;;16.28;99.95
34065;BME280;20339;49.754;20.158;2022-09-09T02:30:31;96424.34;;;16.24;100.00
34065;BME280;20339;49.754;20.158;2022-09-09T02:33:05;96424.88;;;16.17;100.00
34065;BME280;20339;49.754;20.158;2022-09-09T02:35:41;96423.91;;;16.14;100.00
34065;BME280;20339;49.754;20.158;2022-09-09T02:38:15;96424.15;;;16.16;100.00
34065;BME280;20339;49.754;20.158;2022-09-09T02:40:47;96426.91;;;16.17;100.00
34065;BME280;20339;49.754;20.158;2022-09-09T02:43:18;96428.55;;;16.19;100.00
34065;BME280;20339;49.754;20.158;2022-09-09T02:45:53;96432.98;;;16.23;100.00
34065;BME280;20339;49.754;20.158;2022-09-09T02:48:33;96436.22;;;16.25;99.99
34065;BME280;20339;49.754;20.158;2022-09-09T02:51:13;96443.68;;;16.26;99.93
34065;BME280;20339;49.754;20.158;2022-09-09T02:53:50;96447.36;;;16.26;99.94
34065;BME280;20339;49.754;20.158;2022-09-09T02:56:27;96450.59;;;16.29;100.00
34065;BME280;20339;49.754;20.158;2022-09-09T02:59:04;96447.53;;;16.29;99.78
34065;BME280;20339;49.754;20.158;2022-09-09T03:01:35;96455.66;;;16.28;99.69
34065;BME280;20339;49.754;20.158;2022-09-09T03:04:09;96452.54;;;16.28;99.66
34065;BME280;20339;49.754;20.158;2022-09-09T03:06:41;96456.46;;;16.30;99.61
34065;BME280;20339;49.754;20.158;2022-09-09T03:09:13;96454.73;;;16.31;99.38
34065;BME280;20339;49.754;20.158;2022-09-09T03:11:44;96459.30;;;16.32;99.10
34065;BME280;20339;49.754;20.158;2022-09-09T03:14:15;96451.77;;;16.30;98.92
34065;BME280;20339;49.754;20.158;2022-09-09T03:16:46;96453.61;;;16.30;98.92
34065;BME280;20339;49.754;20.158;2022-09-09T03:19:17;96458.92;;;16.29;98.99
34065;BME280;20339;49.754;20.158;2022-09-09T03:21:49;96460.73;;;16.26;98.87
34065;BME280;20339;49.754;20.158;2022-09-09T03:24:20;96460.87;;;16.22;98.55
34065;BME280;20339;49.754;20.158;2022-09-09T03:26:52;96459.90;;;16.23;98.70
34065;BME280;20339;49.754;20.158;2022-09-09T03:29:25;96459.61;;;16.25;98.72
34065;BME280;20339;49.754;20.158;2022-09-09T03:31:56;96458.48;;;16.25;98.77
34065;BME280;20339;49.754;20.158;2022-09-09T03:34:28;96460.84;;;16.23;98.48
34065;BME280;20339;49.754;20.158;2022-09-09T03:36:59;96461.38;;;16.22;98.51
34065;BME280;20339;49.754;20.158;2022-09-09T03:39:30;96463.90;;;16.21;98.61
34065;BME280;20339;49.754;20.158;2022-09-09T03:42:01;96464.96;;;16.18;98.65
34065;BME280;20339;49.754;20.158;2022-09-09T03:44:34;96465.98;;;16.06;98.46
34065;BME280;20339;49.754;20.158;2022-09-09T03:47:05;96468.10;;;15.98;98.64
34065;BME280;20339;49.754;20.158;2022-09-09T03:49:36;96467.73;;;15.97;98.86
34065;BME280;20339;49.754;20.158;2022-09-09T03:52:07;96470.27;;;15.97;98.87
34065;BME280;20339;49.754;20.158;2022-09-09T03:54:48;96473.20;;;15.98;98.71
34065;BME280;20339;49.754;20.158;2022-09-09T03:57:19;96477.69;;;15.99;98.80
34065;BME280;20339;49.754;20.158;2022-09-09T03:59:51;96478.98;;;16.05;98.81
34065;BME280;20339;49.754;20.158;2022-09-09T04:02:22;96482.92;;;16.08;98.70
34065;BME280;20339;49.754;20.158;2022-09-09T04:04:54;96477.19;;;16.09;98.65
34065;BME280;20339;49.754;20.158;2022-09-09T04:07:25;96478.45;;;16.10;98.38
34065;BME280;20339;49.754;20.158;2022-09-09T04:09:59;96481.41;;;16.08;98.41
34065;BME280;20339;49.754;20.158;2022-09-09T04:12:31;96482.53;;;16.00;98.43
34065;BME280;20339;49.754;20.158;2022-09-09T04:15:03;96489.46;;;15.96;98.59
34065;BME280;20339;49.754;20.158;2022-09-09T04:17:34;96491.76;;;15.89;98.91
34065;BME280;20339;49.754;20.158;2022-09-09T04:20:07;96490.24;;;15.84;99.23
34065;BME280;20339;49.754;20.158;2022-09-09T04:22:41;96492.61;;;15.83;99.44
34065;BME280;20339;49.754;20.158;2022-09-09T04:25:13;96489.09;;;15.83;99.69
34065;BME280;20339;49.754;20.158;2022-09-09T04:27:44;96490.78;;;15.83;99.73
34065;BME280;20339;49.754;20.158;2022-09-09T04:30:19;96490.19;;;15.87;99.89
34065;BME280;20339;49.754;20.158;2022-09-09T04:32:50;96488.91;;;15.89;99.91
34065;BME280;20339;49.754;20.158;2022-09-09T04:35:21;96484.48;;;15.92;99.85
34065;BME280;20339;49.754;20.158;2022-09-09T04:37:53;96479.31;;;15.91;99.75
34065;BME280;20339;49.754;20.158;2022-09-09T04:40:24;96480.98;;;15.96;99.80
34065;BME280;20339;49.754;20.158;2022-09-09T04:42:57;96480.71;;;15.99;99.70
34065;BME280;20339;49.754;20.158;2022-09-09T04:45:28;96479.89;;;15.99;99.66
34065;BME280;20339;49.754;20.158;2022-09-09T04:48:01;96478.13;;;16.01;99.70
34065;BME280;20339;49.754;20.158;2022-09-09T04:50:33;96479.70;;;16.02;99.91
34065;BME280;20339;49.754;20.158;2022-09-09T04:53:05;96480.84;;;16.01;100.00
34065;BME280;20339;49.754;20.158;2022-09-09T04:55:36;96479.52;;;15.97;100.00
34065;BME280;20339;49.754;20.158;2022-09-09T04:58:08;96488.36;;;15.92;100.00
34065;BME280;20339;49.754;20.158;2022-09-09T05:00:39;96492.56;;;15.89;100.00
34065;BME280;20339;49.754;20.158;2022-09-09T05:03:13;96493.20;;;15.88;100.00
34065;BME280;20339;49.754;20.158;2022-09-09T05:05:44;96496.13;;;15.86;100.00
34065;BME280;20339;49.754;20.158;2022-09-09T05:08:15;96498.14;;;15.85;100.00
34065;BME280;20339;49.754;20.158;2022-09-09T05:10:47;96499.89;;;15.85;100.00
34065;BME280;20339;49.754;20.158;2022-09-09T05:13:19;96494.36;;;15.88;100.00
34065;BME280;20339;49.754;20.158;2022-09-09T05:15:54;96490.20;;;15.92;100.00
34065;BME280;20339;49.754;20.158;2022-09-09T05:18:26;96485.02;;;15.97;100.00
34065;BME280;20339;49.754;20.158;2022-09-09T05:21:01;96490.50;;;16.06;100.00
34065;BME280;20339;49.754;20.158;2022-09-09T05:23:33;96489.04;;;16.18;100.00
34065;BME280;20339;49.754;20.158;2022-09-09T05:26:05;96487.53;;;16.35;100.00
34065;BME280;20339;49.754;20.158;2022-09-09T05:28:37;96488.29;;;16.64;100.00
34065;BME280;20339;49.754;20.158;2022-09-09T05:31:10;96492.17;;;16.93;99.17
34065;BME280;20339;49.754;20.158;2022-09-09T05:33:43;96491.36;;;16.98;98.03
34065;BME280;20339;49.754;20.158;2022-09-09T05:36:16;96493.71;;;17.04;97.39
34065;BME280;20339;49.754;20.158;2022-09-09T05:38:48;96493.08;;;17.15;97.11
34065;BME280;20339;49.754;20.158;2022-09-09T05:41:23;96499.22;;;17.56;97.88
34065;BME280;20339;49.754;20.158;2022-09-09T05:43:54;96501.80;;;18.21;97.18
34065;BME280;20339;49.754;20.158;2022-09-09T05:46:26;96497.12;;;18.34;94.65
34065;BME280;20339;49.754;20.158;2022-09-09T05:48:57;96498.45;;;18.34;93.93
34065;BME280;20339;49.754;20.158;2022-09-09T05:51:29;96499.20;;;18.68;94.06
34065;BME280;20339;49.754;20.158;2022-09-09T05:54:01;96501.77;;;19.42;92.24
34065;BME280;20339;49.754;20.158;2022-09-09T05:56:32;96504.20;;;19.93;89.52
34065;BME280;20339;49.754;20.158;2022-09-09T05:59:03;96495.90;;;21.03;87.51
34065;BME280;20339;49.754;20.158;2022-09-09T06:01:36;96493.35;;;22.27;82.76
34065;BME280;20339;49.754;20.158;2022-09-09T06:04:12;96496.31;;;23.32;78.27
34065;BME280;20339;49.754;20.158;2022-09-09T06:06:43;96492.89;;;23.51;74.20
34065;BME280;20339;49.754;20.158;2022-09-09T06:09:14;96502.27;;;23.47;73.00
34065;BME280;20339;49.754;20.158;2022-09-09T06:11:46;96503.23;;;24.05;70.61
34065;BME280;20339;49.754;20.158;2022-09-09T06:14:17;96503.84;;;24.05;66.94
34065;BME280;20339;49.754;20.158;2022-09-09T06:16:48;96505.11;;;23.67;66.83
34065;BME280;20339;49.754;20.158;2022-09-09T06:19:19;96507.47;;;23.64;66.12
34065;BME280;20339;49.754;20.158;2022-09-09T06:21:51;96513.52;;;23.83;65.44
34065;BME280;20339;49.754;20.158;2022-09-09T06:24:22;96515.70;;;23.89;63.42
34065;BME280;20339;49.754;20.158;2022-09-09T06:26:53;96515.20;;;23.85;63.35
34065;BME280;20339;49.754;20.158;2022-09-09T06:29:25;96513.85;;;23.47;62.59
34065;BME280;20339;49.754;20.158;2022-09-09T06:31:57;96518.59;;;23.34;63.69
34065;BME280;20339;49.754;20.158;2022-09-09T06:34:28;96516.88;;;23.53;64.48
34065;BME280;20339;49.754;20.158;2022-09-09T06:37:00;96513.40;;;23.23;62.28
34065;BME280;20339;49.754;20.158;2022-09-09T06:39:31;96518.12;;;22.58;63.10
34065;BME280;20339;49.754;20.158;2022-09-09T06:42:02;96515.16;;;22.40;64.05
34065;BME280;20339;49.754;20.158;2022-09-09T06:44:34;96511.96;;;23.18;64.95
34065;BME280;20339;49.754;20.158;2022-09-09T06:47:06;96514.14;;;24.86;62.09
34065;BME280;20339;49.754;20.158;2022-09-09T06:49:37;96519.88;;;25.04;58.96
34065;BME280;20339;49.754;20.158;2022-09-09T06:52:08;96513.36;;;25.60;57.89
34065;BME280;20339;49.754;20.158;2022-09-09T06:54:40;96514.91;;;24.24;56.84
34065;BME280;20339;49.754;20.158;2022-09-09T06:57:11;96515.96;;;22.67;58.12
34065;BME280;20339;49.754;20.158;2022-09-09T06:59:43;96517.38;;;22.81;60.21
34065;BME280;20339;49.754;20.158;2022-09-09T07:02:15;96520.15;;;23.44;60.03
34065;BME280;20339;49.754;20.158;2022-09-09T07:04:47;96520.20;;;24.52;59.33
34065;BME280;20339;49.754;20.158;2022-09-09T07:07:21;96517.92;;;24.16;57.45
34065;BME280;20339;49.754;20.158;2022-09-09T07:09:55;96519.04;;;23.38;57.62
34065;BME280;20339;49.754;20.158;2022-09-09T07:12:26;96516.77;;;23.42;60.73
34065;BME280;20339;49.754;20.158;2022-09-09T07:14:58;96515.19;;;25.14;61.87
34065;BME280;20339;49.754;20.158;2022-09-09T07:17:30;96516.14;;;27.08;57.25
34065;BME280;20339;49.754;20.158;2022-09-09T07:20:01;96518.28;;;26.61;54.68
34065;BME280;20339;49.754;20.158;2022-09-09T07:22:34;96524.35;;;26.03;55.52
34065;BME280;20339;49.754;20.158;2022-09-09T07:25:07;96514.89;;;25.91;55.76
34065;BME280;20339;49.754;20.158;2022-09-09T07:27:39;96519.42;;;25.40;55.37
34065;BME280;20339;49.754;20.158;2022-09-09T07:30:12;96523.61;;;25.29;55.15
34065;BME280;20339;49.754;20.158;2022-09-09T07:32:44;96522.31;;;26.01;55.90
34065;BME280;20339;49.754;20.158;2022-09-09T07:35:16;96522.20;;;27.36;54.86
34065;BME280;20339;49.754;20.158;2022-09-09T07:37:47;96522.77;;;28.03;51.50
34065;BME280;20339;49.754;20.158;2022-09-09T07:40:18;96518.58;;;27.85;49.32
34065;BME280;20339;49.754;20.158;2022-09-09T07:42:51;96529.42;;;26.45;50.21
34065;BME280;20339;49.754;20.158;2022-09-09T07:45:23;96530.19;;;26.24;51.60
34065;BME280;20339;49.754;20.158;2022-09-09T07:47:54;96531.77;;;26.46;52.63
34065;BME280;20339;49.754;20.158;2022-09-09T07:50:27;96535.79;;;26.97;52.01
34065;BME280;20339;49.754;20.158;2022-09-09T07:53:00;96538.78;;;27.50;52.18
34065;BME280;20339;49.754;20.158;2022-09-09T07:55:32;96539.39;;;27.20;50.06
34065;BME280;20339;49.754;20.158;2022-09-09T07:58:03;96540.27;;;25.94;50.24
34065;BME280;20339;49.754;20.158;2022-09-09T08:00:34;96539.73;;;25.58;52.06
34065;BME280;20339;49.754;20.158;2022-09-09T08:03:05;96537.58;;;25.31;50.87
34065;BME280;20339;49.754;20.158;2022-09-09T08:05:37;96543.38;;;25.10;51.83
34065;BME280;20339;49.754;20.158;2022-09-09T08:08:09;96544.91;;;24.22;51.53
34065;BME280;20339;49.754;20.158;2022-09-09T08:10:40;96550.29;;;22.95;53.61
34065;BME280;20339;49.754;20.158;2022-09-09T08:13:11;96555.52;;;22.24;56.23
34065;BME280;20339;49.754;20.158;2022-09-09T08:15:42;96560.08;;;22.28;57.44
34065;BME280;20339;49.754;20.158;2022-09-09T08:18:14;96561.74;;;22.35;57.74
34065;BME280;20339;49.754;20.158;2022-09-09T08:20:45;96562.74;;;22.02;57.89
34065;BME280;20339;49.754;20.158;2022-09-09T08:23:16;96565.11;;;21.81;58.52
34065;BME280;20339;49.754;20.158;2022-09-09T08:25:47;96563.71;;;21.56;59.01
34065;BME280;20339;49.754;20.158;2022-09-09T08:28:21;96555.71;;;21.40;59.77
34065;BME280;20339;49.754;20.158;2022-09-09T08:30:52;96554.55;;;21.37;60.30
34065;BME280;20339;49.754;20.158;2022-09-09T08:33:24;96550.94;;;21.54;61.00
34065;BME280;20339;49.754;20.158;2022-09-09T08:35:55;96551.66;;;22.41;61.44
34065;BME280;20339;49.754;20.158;2022-09-09T08:38:26;96558.18;;;23.64;59.89
34065;BME280;20339;49.754;20.158;2022-09-09T08:41:07;96563.98;;;23.94;58.26
34065;BME280;20339;49.754;20.158;2022-09-09T08:43:45;96564.80;;;23.38;57.50
34065;BME280;20339;49.754;20.158;2022-09-09T08:46:23;96569.13;;;23.19;57.93
34065;BME280;20339;49.754;20.158;2022-09-09T08:48:59;96569.28;;;22.64;58.12
34065;BME280;20339;49.754;20.158;2022-09-09T08:51:34;96574.86;;;23.02;58.88
34065;BME280;20339;49.754;20.158;2022-09-09T08:54:10;96572.75;;;23.19;57.66
34065;BME280;20339;49.754;20.158;2022-09-09T08:56:50;96567.90;;;24.60;58.10
34065;BME280;20339;49.754;20.158;2022-09-09T08:59:21;96560.02;;;26.53;57.85
34065;BME280;20339;49.754;20.158;2022-09-09T09:02:13;96557.78;;;27.69;53.13
34065;BME280;20339;49.754;20.158;2022-09-09T09:05:00;96561.73;;;28.22;53.00
34065;BME280;20339;49.754;20.158;2022-09-09T09:07:44;96567.05;;;28.79;51.18
34065;BME280;20339;49.754;20.158;2022-09-09T09:10:25;96562.73;;;28.31;48.64
34065;BME280;20339;49.754;20.158;2022-09-09T09:13:02;96565.41;;;26.78;47.88
34065;BME280;20339;49.754;20.158;2022-09-09T09:15:38;96569.09;;;25.84;49.72
34065;BME280;20339;49.754;20.158;2022-09-09T09:18:12;96569.85;;;25.52;50.20
34065;BME280;20339;49.754;20.158;2022-09-09T09:20:51;96571.99;;;24.99;50.64
34065;BME280;20339;49.754;20.158;2022-09-09T09:23:29;96573.33;;;24.51;51.80
34065;BME280;20339;49.754;20.158;2022-09-09T09:26:09;96569.19;;;24.29;52.22
34065;BME280;20339;49.754;20.158;2022-09-09T09:28:41;96570.10;;;23.95;52.59
34065;BME280;20339;49.754;20.158;2022-09-09T09:31:12;96568.66;;;23.19;52.88
34065;BME280;20339;49.754;20.158;2022-09-09T09:33:48;96578.16;;;22.34;54.97
34065;BME280;20339;49.754;20.158;2022-09-09T09:36:21;96576.69;;;22.19;56.37
34065;BME280;20339;49.754;20.158;2022-09-09T09:38:57;96576.21;;;22.18;56.69
34065;BME280;20339;49.754;20.158;2022-09-09T09:41:38;96578.08;;;22.18;56.63
34065;BME280;20339;49.754;20.158;2022-09-09T09:44:24;96576.23;;;22.25;56.78
34065;BME280;20339;49.754;20.158;2022-09-09T09:47:07;96570.55;;;22.50;57.27
34065;BME280;20339;49.754;20.158;2022-09-09T09:49:39;96572.05;;;22.72;56.44
34065;BME280;20339;49.754;20.158;2022-09-09T09:52:19;96569.73;;;22.37;55.14
34065;BME280;20339;49.754;20.158;2022-09-09T09:54:53;96564.98;;;22.23;55.57
34065;BME280;20339;49.754;20.158;2022-09-09T09:57:27;96565.59;;;22.19;55.84
34065;BME280;20339;49.754;20.158;2022-09-09T10:00:15;96561.77;;;22.36;56.62
34065;BME280;20339;49.754;20.158;2022-09-09T10:02:48;96557.27;;;22.83;56.96
34065;BME280;20339;49.754;20.158;2022-09-09T10:05:23;96556.16;;;22.66;56.46
34065;BME280;20339;49.754;20.158;2022-09-09T10:08:12;96558.05;;;22.38;57.58
34065;BME280;20339;49.754;20.158;2022-09-09T10:13:42;96551.75;;;22.69;57.87
34065;BME280;20339;49.754;20.158;2022-09-09T10:16:29;96550.25;;;22.99;57.51
34065;BME280;20339;49.754;20.158;2022-09-09T10:19:05;96556.73;;;23.17;56.40
34065;BME280;20339;49.754;20.158;2022-09-09T10:21:59;96555.98;;;23.09;56.82
34065;BME280;20339;49.754;20.158;2022-09-09T10:24:55;96558.83;;;23.22;57.26
34065;BME280;20339;49.754;20.158;2022-09-09T10:27:40;96556.61;;;23.33;56.32
34065;BME280;20339;49.754;20.158;2022-09-09T10:30:19;96557.29;;;22.88;54.49
34065;BME280;20339;49.754;20.158;2022-09-09T10:33:01;96551.26;;;22.43;55.65
34065;BME280;20339;49.754;20.158;2022-09-09T10:35:37;96551.03;;;22.47;56.08
34065;BME280;20339;49.754;20.158;2022-09-09T10:38:22;96550.64;;;22.59;56.48
34065;BME280;20339;49.754;20.158;2022-09-09T10:41:13;96553.77;;;23.03;57.90
34065;BME280;20339;49.754;20.158;2022-09-09T10:44:00;96554.56;;;23.22;56.13
34065;BME280;20339;49.754;20.158;2022-09-09T10:46:39;96556.56;;;22.82;55.74
34065;BME280;20339;49.754;20.158;2022-09-09T10:49:22;96559.30;;;22.96;56.77
34065;BME280;20339;49.754;20.158;2022-09-09T10:52:00;96558.03;;;23.21;56.21
34065;BME280;20339;49.754;20.158;2022-09-09T10:54:45;96554.55;;;23.16;56.47
34065;BME280;20339;49.754;20.158;2022-09-09T10:57:33;96556.17;;;23.29;55.81
34065;BME280;20339;49.754;20.158;2022-09-09T11:00:14;96556.25;;;23.07;55.34
34065;BME280;20339;49.754;20.158;2022-09-09T11:02:50;96556.30;;;22.60;54.39
34065;BME280;20339;49.754;20.158;2022-09-09T11:05:27;96556.54;;;22.08;54.96
34065;BME280;20339;49.754;20.158;2022-09-09T11:08:03;96554.00;;;21.98;56.16
34065;BME280;20339;49.754;20.158;2022-09-09T11:10:41;96552.52;;;22.13;56.58
34065;BME280;20339;49.754;20.158;2022-09-09T11:13:19;96555.90;;;22.28;56.84
34065;BME280;20339;49.754;20.158;2022-09-09T11:15:58;96557.09;;;22.69;56.85
34065;BME280;20339;49.754;20.158;2022-09-09T11:18:39;96561.53;;;23.22;56.18
34065;BME280;20339;49.754;20.158;2022-09-09T11:21:21;96556.63;;;23.72;56.24
34065;BME280;20339;49.754;20.158;2022-09-09T11:23:59;96557.46;;;23.98;54.72
34065;BME280;20339;49.754;20.158;2022-09-09T11:26:38;96558.75;;;24.03;54.75
34065;BME280;20339;49.754;20.158;2022-09-09T11:29:25;96559.71;;;23.99;54.70
34065;BME280;20339;49.754;20.158;2022-09-09T11:32:12;96567.48;;;23.95;54.86
34065;BME280;20339;49.754;20.158;2022-09-09T11:35:00;96566.88;;;23.92;54.87
34065;BME280;20339;49.754;20.158;2022-09-09T11:40:34;96563.95;;;23.87;54.71
34065;BME280;20339;49.754;20.158;2022-09-09T11:43:11;96569.90;;;23.71;54.41
34065;BME280;20339;49.754;20.158;2022-09-09T11:45:49;96573.48;;;23.71;55.04
34065;BME280;20339;49.754;20.158;2022-09-09T11:48:31;96571.44;;;23.75;54.48
34065;BME280;20339;49.754;20.158;2022-09-09T11:51:06;96571.79;;;23.68;55.26
34065;BME280;20339;49.754;20.158;2022-09-09T11:53:50;96569.36;;;23.92;55.16
34065;BME280;20339;49.754;20.158;2022-09-09T11:56:30;96565.79;;;24.25;55.79
34065;BME280;20339;49.754;20.158;2022-09-09T11:59:05;96567.80;;;24.62;54.92
34065;BME280;20339;49.754;20.158;2022-09-09T12:01:39;96568.71;;;24.81;54.48
34065;BME280;20339;49.754;20.158;2022-09-09T12:07:02;96559.48;;;24.79;51.91
34065;BME280;20339;49.754;20.158;2022-09-09T12:09:46;96563.93;;;24.25;50.71
34065;BME280;20339;49.754;20.158;2022-09-09T12:12:26;96563.44;;;23.48;49.65
34065;BME280;20339;49.754;20.158;2022-09-09T12:15:19;96558.86;;;23.01;51.08
34065;BME280;20339;49.754;20.158;2022-09-09T12:17:52;96554.14;;;22.84;51.04
34065;BME280;20339;49.754;20.158;2022-09-09T12:20:30;96550.25;;;22.59;51.34
34065;BME280;20339;49.754;20.158;2022-09-09T12:23:36;96552.94;;;22.30;51.99
34065;BME280;20339;49.754;20.158;2022-09-09T12:26:29;96558.39;;;22.11;52.74
34065;BME280;20339;49.754;20.158;2022-09-09T12:29:09;96561.37;;;21.89;52.78
34065;BME280;20339;49.754;20.158;2022-09-09T12:31:48;96560.68;;;21.82;53.17
34065;BME280;20339;49.754;20.158;2022-09-09T12:37:21;96551.14;;;21.97;53.99
34065;BME280;20339;49.754;20.158;2022-09-09T12:39:58;96551.02;;;22.23;54.74
34065;BME280;20339;49.754;20.158;2022-09-09T12:42:30;96547.02;;;22.43;53.88
34065;BME280;20339;49.754;20.158;2022-09-09T12:45:14;96551.48;;;22.54;53.19
34065;BME280;20339;49.754;20.158;2022-09-09T12:47:51;96552.48;;;22.47;52.12
34065;BME280;20339;49.754;20.158;2022-09-09T12:50:27;96564.79;;;22.44;52.55
34065;BME280;20339;49.754;20.158;2022-09-09T12:53:03;96565.89;;;22.69;53.22
34065;BME280;20339;49.754;20.158;2022-09-09T12:55:48;96561.41;;;22.93;53.18
34065;BME280;20339;49.754;20.158;2022-09-09T12:58:25;96556.37;;;23.14;52.56
34065;BME280;20339;49.754;20.158;2022-09-09T13:00:58;96549.84;;;23.21;51.74
34065;BME280;20339;49.754;20.158;2022-09-09T13:03:30;96548.77;;;23.41;52.26
34065;BME280;20339;49.754;20.158;2022-09-09T13:06:13;96546.52;;;23.45;51.28
34065;BME280;20339;49.754;20.158;2022-09-09T13:08:49;96540.56;;;23.40;50.89
34065;BME280;20339;49.754;20.158;2022-09-09T13:11:23;96536.48;;;23.17;49.94
34065;BME280;20339;49.754;20.158;2022-09-09T13:13:56;96535.66;;;23.00;50.21
34065;BME280;20339;49.754;20.158;2022-09-09T13:16:30;96538.27;;;22.90;49.93
34065;BME280;20339;49.754;20.158;2022-09-09T13:19:06;96534.14;;;22.92;51.01
34065;BME280;20339;49.754;20.158;2022-09-09T13:21:40;96527.05;;;23.02;50.93
34065;BME280;20339;49.754;20.158;2022-09-09T13:24:27;96532.80;;;23.05;51.35
34065;BME280;20339;49.754;20.158;2022-09-09T13:27:02;96530.61;;;23.08;51.91
34065;BME280;20339;49.754;20.158;2022-09-09T13:29:34;96531.82;;;23.29;52.83
34065;BME280;20339;49.754;20.158;2022-09-09T13:32:12;96531.81;;;23.57;53.16
34065;BME280;20339;49.754;20.158;2022-09-09T13:34:53;96530.48;;;23.83;53.09
34065;BME280;20339;49.754;20.158;2022-09-09T13:37:33;96534.31;;;24.04;52.24
34065;BME280;20339;49.754;20.158;2022-09-09T13:40:12;96532.21;;;24.14;52.05
34065;BME280;20339;49.754;20.158;2022-09-09T13:42:50;96524.09;;;24.15;51.83
34065;BME280;20339;49.754;20.158;2022-09-09T13:45:24;96523.50;;;23.99;51.70
34065;BME280;20339;49.754;20.158;2022-09-09T13:48:10;96518.89;;;23.90;51.48